createdAt,value
2018-04-30T00:00:44.210Z,20.36
2018-04-30T00:01:44.354Z,20.33
2018-04-30T00:02:44.498Z,20.26
2018-04-30T00:03:44.642Z,20.22
2018-04-30T00:04:44.780Z,20.26
2018-04-30T00:05:44.917Z,20.27
2018-04-30T00:06:45.060Z,20.17
2018-04-30T00:07:45.196Z,20.17
2018-04-30T00:08:45.333Z,20.18
2018-04-30T00:09:45.477Z,20.23
2018-04-30T00:10:45.637Z,20.04
2018-04-30T00:11:45.782Z,20.05
2018-04-30T00:12:45.965Z,20.07
2018-04-30T00:13:46.100Z,20.04
2018-04-30T00:14:46.247Z,20.08
2018-04-30T00:15:46.392Z,20.04
2018-04-30T00:16:46.574Z,20.04
2018-04-30T00:17:46.712Z,20.02
2018-04-30T00:18:46.858Z,19.90
2018-04-30T00:19:47.008Z,19.96
2018-04-30T00:20:47.178Z,19.97
2018-04-30T00:21:47.317Z,19.86
2018-04-30T00:22:47.514Z,19.96
2018-04-30T00:23:47.652Z,19.97
2018-04-30T00:24:47.820Z,20.02
2018-04-30T00:25:47.957Z,19.99
2018-04-30T00:26:48.100Z,19.92
2018-04-30T00:27:48.242Z,19.96
2018-04-30T00:28:48.379Z,19.93
2018-04-30T00:29:48.521Z,19.92
2018-04-30T00:30:48.664Z,19.97
2018-04-30T00:31:48.819Z,19.92
2018-04-30T00:32:48.958Z,19.82
2018-04-30T00:33:49.100Z,19.84
2018-04-30T00:34:49.271Z,19.92
2018-04-30T00:35:49.404Z,19.82
2018-04-30T00:36:49.538Z,19.87
2018-04-30T00:37:49.712Z,19.84
2018-04-30T00:38:49.858Z,19.87
2018-04-30T00:39:49.998Z,19.84
2018-04-30T00:40:50.136Z,19.74
2018-04-30T00:41:50.296Z,19.77
2018-04-30T00:42:50.433Z,19.81
2018-04-30T00:43:50.570Z,19.74
2018-04-30T00:44:50.720Z,19.84
2018-04-30T00:45:50.866Z,19.89
2018-04-30T00:46:51.024Z,19.87
2018-04-30T00:47:51.151Z,19.86
2018-04-30T00:48:51.318Z,19.78
2018-04-30T00:49:51.506Z,19.81
2018-04-30T00:50:51.731Z,19.82
2018-04-30T00:51:51.790Z,19.75
2018-04-30T00:52:51.928Z,19.74
2018-04-30T00:53:52.068Z,19.79
2018-04-30T00:54:52.210Z,19.78
2018-04-30T00:55:52.379Z,19.81
2018-04-30T00:56:52.519Z,19.77
2018-04-30T00:57:52.656Z,19.82
2018-04-30T00:58:52.795Z,19.71
2018-04-30T00:59:52.942Z,19.87
2018-04-30T01:00:53.086Z,19.84
2018-04-30T01:01:53.278Z,19.86
2018-04-30T01:02:53.410Z,19.87
2018-04-30T01:03:53.550Z,19.86
2018-04-30T01:04:53.694Z,19.75
2018-04-30T01:05:53.838Z,19.78
2018-04-30T01:06:53.978Z,19.84
2018-04-30T01:07:54.118Z,19.78
2018-04-30T01:08:54.261Z,19.72
2018-04-30T01:09:54.401Z,19.71
2018-04-30T01:10:54.538Z,19.63
2018-04-30T01:11:54.675Z,19.63
2018-04-30T01:12:54.821Z,19.70
2018-04-30T01:13:54.964Z,19.60
2018-04-30T01:14:55.111Z,19.60
2018-04-30T01:15:55.257Z,19.64
2018-04-30T01:16:55.468Z,19.63
2018-04-30T01:17:55.487Z,19.70
2018-04-30T01:18:55.629Z,19.60
2018-04-30T01:19:55.770Z,19.64
2018-04-30T01:20:55.910Z,19.70
2018-04-30T01:21:56.047Z,19.67
2018-04-30T01:22:56.187Z,19.63
2018-04-30T01:23:56.331Z,19.64
2018-04-30T01:24:56.470Z,19.71
2018-04-30T01:25:56.614Z,19.75
2018-04-30T01:26:56.756Z,19.62
2018-04-30T01:27:56.897Z,19.56
2018-04-30T01:28:57.044Z,19.32
2018-04-30T01:29:57.176Z,19.30
2018-04-30T01:30:57.320Z,19.31
2018-04-30T01:31:57.462Z,19.32
2018-04-30T01:32:57.603Z,19.37
2018-04-30T01:33:57.741Z,19.38
2018-04-30T01:34:57.880Z,19.34
2018-04-30T01:35:58.050Z,19.35
2018-04-30T01:36:58.184Z,19.37
2018-04-30T01:37:58.323Z,19.42
2018-04-30T01:38:58.465Z,19.31
2018-04-30T01:39:58.621Z,19.23
2018-04-30T01:40:58.761Z,19.24
2018-04-30T01:41:58.906Z,19.09
2018-04-30T01:42:59.036Z,19.04
2018-04-30T01:43:59.194Z,19.12
2018-04-30T01:44:59.330Z,19.13
2018-04-30T01:45:59.467Z,19.00
2018-04-30T01:46:59.611Z,19.04
2018-04-30T01:47:59.760Z,19.04
2018-04-30T01:48:59.896Z,19.19
2018-04-30T01:50:00.037Z,19.15
2018-04-30T01:51:00.181Z,19.08
2018-04-30T01:52:00.506Z,19.17
2018-04-30T01:53:00.466Z,19.16
2018-04-30T01:54:00.602Z,19.08
2018-04-30T01:55:00.740Z,19.16
2018-04-30T01:56:00.888Z,19.08
2018-04-30T01:57:01.026Z,19.08
2018-04-30T01:58:01.192Z,19.09
2018-04-30T01:59:01.352Z,19.08
2018-04-30T02:00:01.486Z,19.12
2018-04-30T02:01:01.647Z,19.16
2018-04-30T02:02:01.876Z,19.12
2018-04-30T02:03:01.939Z,19.12
2018-04-30T02:04:02.087Z,19.00
2018-04-30T02:05:02.251Z,19.08
2018-04-30T02:06:02.394Z,18.82
2018-04-30T02:07:02.515Z,18.79
2018-04-30T02:08:02.670Z,18.79
2018-04-30T02:09:02.805Z,18.56
2018-04-30T02:10:02.948Z,18.56
2018-04-30T02:11:03.086Z,18.63
2018-04-30T02:12:03.240Z,18.46
2018-04-30T02:13:03.377Z,18.49
2018-04-30T02:14:03.516Z,18.36
2018-04-30T02:15:03.656Z,18.34
2018-04-30T02:16:03.858Z,18.43
2018-04-30T02:17:03.868Z,18.45
2018-04-30T02:18:04.009Z,18.28
2018-04-30T02:19:04.145Z,18.20
2018-04-30T02:20:04.295Z,18.33
2018-04-30T02:21:04.414Z,18.26
2018-04-30T02:22:05.028Z,18.36
2018-04-30T02:24:36.769Z,18.43
2018-04-30T02:25:36.906Z,18.43
2018-04-30T02:26:37.047Z,18.43
2018-04-30T02:27:37.180Z,18.38
2018-04-30T02:28:37.316Z,18.36
2018-04-30T02:29:37.455Z,18.41
2018-04-30T02:30:37.622Z,18.43
2018-04-30T02:31:37.747Z,18.34
2018-04-30T02:32:37.882Z,18.33
2018-04-30T02:33:38.119Z,18.33
2018-04-30T02:34:38.156Z,18.41
2018-04-30T02:35:38.298Z,18.30
2018-04-30T02:36:38.439Z,18.13
2018-04-30T02:37:38.578Z,18.13
2018-04-30T02:38:38.715Z,18.02
2018-04-30T02:39:38.860Z,17.90
2018-04-30T02:40:39.010Z,17.93
2018-04-30T02:41:39.145Z,17.76
2018-04-30T02:42:39.285Z,17.81
2018-04-30T02:43:39.419Z,17.86
2018-04-30T02:44:39.560Z,17.84
2018-04-30T02:45:39.698Z,17.87
2018-04-30T02:46:39.837Z,17.88
2018-04-30T02:47:39.980Z,17.68
2018-04-30T02:48:40.106Z,17.78
2018-04-30T02:49:40.244Z,17.71
2018-04-30T02:50:40.395Z,17.65
2018-04-30T02:51:40.535Z,17.69
2018-04-30T02:52:40.676Z,17.84
2018-04-30T02:53:40.811Z,17.81
2018-04-30T02:54:40.952Z,17.72
2018-04-30T02:55:41.089Z,17.78
2018-04-30T02:56:41.238Z,17.88
2018-04-30T02:57:41.378Z,17.79
2018-04-30T02:58:41.532Z,17.86
2018-04-30T02:59:41.682Z,17.88
2018-04-30T03:00:41.821Z,17.81
2018-04-30T03:01:41.966Z,17.84
2018-04-30T03:02:42.127Z,17.75
2018-04-30T03:03:42.273Z,17.76
2018-04-30T03:04:42.408Z,17.66
2018-04-30T03:05:42.546Z,17.65
2018-04-30T03:06:42.747Z,17.65
2018-04-30T03:07:42.758Z,17.47
2018-04-30T03:08:42.903Z,17.46
2018-04-30T03:09:43.072Z,17.53
2018-04-30T03:10:43.208Z,17.50
2018-04-30T03:11:43.344Z,17.56
2018-04-30T03:12:43.486Z,17.57
2018-04-30T03:13:43.681Z,17.63
2018-04-30T03:14:43.764Z,17.65
2018-04-30T03:15:43.899Z,17.62
2018-04-30T03:16:44.043Z,17.62
2018-04-30T03:17:44.209Z,17.56
2018-04-30T03:18:44.339Z,17.59
2018-04-30T03:19:44.476Z,17.46
2018-04-30T03:20:44.628Z,17.45
2018-04-30T03:21:44.761Z,17.47
2018-04-30T03:22:44.908Z,17.50
2018-04-30T03:23:45.058Z,17.50
2018-04-30T03:24:45.210Z,17.47
2018-04-30T03:25:45.350Z,17.46
2018-04-30T03:26:45.490Z,17.50
2018-04-30T03:27:45.642Z,17.50
2018-04-30T03:28:45.773Z,17.46
2018-04-30T03:29:45.909Z,17.49
2018-04-30T03:30:46.045Z,17.41
2018-04-30T03:31:46.201Z,17.35
2018-04-30T03:32:46.335Z,17.38
2018-04-30T03:33:46.473Z,17.38
2018-04-30T03:34:46.617Z,17.47
2018-04-30T03:35:46.767Z,17.47
2018-04-30T03:36:46.905Z,17.34
2018-04-30T03:37:47.042Z,17.31
2018-04-30T03:38:47.187Z,17.27
2018-04-30T03:39:47.351Z,17.34
2018-04-30T03:40:47.484Z,17.20
2018-04-30T03:41:47.622Z,17.25
2018-04-30T03:42:47.763Z,17.20
2018-04-30T03:43:47.916Z,17.27
2018-04-30T03:44:48.045Z,17.35
2018-04-30T03:45:48.190Z,17.38
2018-04-30T03:46:48.327Z,17.34
2018-04-30T03:47:48.472Z,17.27
2018-04-30T03:48:48.605Z,17.13
2018-04-30T03:49:48.834Z,17.06
2018-04-30T03:50:48.893Z,17.16
2018-04-30T03:51:49.032Z,17.17
2018-04-30T03:52:49.177Z,17.14
2018-04-30T03:53:49.312Z,17.19
2018-04-30T03:54:49.450Z,17.14
2018-04-30T03:55:49.621Z,17.19
2018-04-30T03:56:49.754Z,17.07
2018-04-30T03:57:49.891Z,17.22
2018-04-30T03:58:50.032Z,17.01
2018-04-30T03:59:50.175Z,17.02
2018-04-30T04:00:50.317Z,16.98
2018-04-30T04:01:50.456Z,16.94
2018-04-30T04:02:50.594Z,16.92
2018-04-30T04:03:50.727Z,16.92
2018-04-30T04:04:50.869Z,16.91
2018-04-30T04:05:51.027Z,16.92
2018-04-30T04:06:51.171Z,16.83
2018-04-30T04:07:51.319Z,16.83
2018-04-30T04:08:51.462Z,16.90
2018-04-30T04:09:51.601Z,16.87
2018-04-30T04:10:51.804Z,16.88
2018-04-30T04:11:51.842Z,16.76
2018-04-30T04:12:51.974Z,16.69
2018-04-30T04:13:52.112Z,16.70
2018-04-30T04:14:52.253Z,16.64
2018-04-30T04:15:52.391Z,16.59
2018-04-30T04:16:52.535Z,16.61
2018-04-30T04:17:52.677Z,16.64
2018-04-30T04:18:52.833Z,16.69
2018-04-30T04:19:52.967Z,16.61
2018-04-30T04:20:53.107Z,16.65
2018-04-30T04:21:53.266Z,16.69
2018-04-30T04:22:53.403Z,16.58
2018-04-30T04:23:53.559Z,16.61
2018-04-30T04:24:53.696Z,16.61
2018-04-30T04:25:53.828Z,16.58
2018-04-30T04:26:53.968Z,16.58
2018-04-30T04:27:54.163Z,16.57
2018-04-30T04:28:54.275Z,16.55
2018-04-30T04:29:54.434Z,16.47
2018-04-30T04:30:54.572Z,16.52
2018-04-30T04:31:54.697Z,16.51
2018-04-30T04:32:54.837Z,16.52
2018-04-30T04:33:54.983Z,16.39
2018-04-30T04:34:55.118Z,16.47
2018-04-30T04:35:55.257Z,16.36
2018-04-30T04:36:55.418Z,16.40
2018-04-30T04:37:55.552Z,16.42
2018-04-30T04:38:55.692Z,16.43
2018-04-30T04:39:55.828Z,16.34
2018-04-30T04:40:55.996Z,16.42
2018-04-30T04:41:56.125Z,16.37
2018-04-30T04:42:56.267Z,16.52
2018-04-30T04:43:56.405Z,16.42
2018-04-30T04:44:56.576Z,16.42
2018-04-30T04:45:56.696Z,16.43
2018-04-30T04:46:56.841Z,16.43
2018-04-30T04:47:57.000Z,16.40
2018-04-30T04:48:57.126Z,16.42
2018-04-30T04:49:57.273Z,16.40
2018-04-30T04:50:57.415Z,16.34
2018-04-30T04:51:57.588Z,16.37
2018-04-30T04:52:57.731Z,16.46
2018-04-30T04:53:57.872Z,16.51
2018-04-30T04:54:58.037Z,16.40
2018-04-30T04:55:58.175Z,16.43
2018-04-30T04:56:58.313Z,16.51
2018-04-30T04:57:58.447Z,16.52
2018-04-30T04:58:58.594Z,16.47
2018-04-30T04:59:58.726Z,16.51
2018-04-30T05:00:58.871Z,16.42
2018-04-30T05:01:59.002Z,16.43
2018-04-30T05:02:59.150Z,16.44
2018-04-30T05:03:59.764Z,16.49
2018-04-30T05:06:31.592Z,16.29
2018-04-30T05:07:31.729Z,16.40
2018-04-30T05:08:31.874Z,16.36
2018-04-30T05:09:32.006Z,16.28
2018-04-30T05:10:32.145Z,16.24
2018-04-30T05:11:32.292Z,16.25
2018-04-30T05:12:32.418Z,16.29
2018-04-30T05:13:32.562Z,16.28
2018-04-30T05:14:32.697Z,16.42
2018-04-30T05:15:32.837Z,16.40
2018-04-30T05:16:32.972Z,16.26
2018-04-30T05:17:33.111Z,16.29
2018-04-30T05:18:33.246Z,16.40
2018-04-30T05:19:33.385Z,16.14
2018-04-30T05:20:33.525Z,16.29
2018-04-30T05:21:33.679Z,16.25
2018-04-30T05:22:33.818Z,16.09
2018-04-30T05:23:33.957Z,16.17
2018-04-30T05:24:34.094Z,16.26
2018-04-30T05:25:34.233Z,16.16
2018-04-30T05:26:34.372Z,16.10
2018-04-30T05:27:34.541Z,16.22
2018-04-30T05:28:34.679Z,16.24
2018-04-30T05:29:34.833Z,16.10
2018-04-30T05:30:34.974Z,16.18
2018-04-30T05:31:35.111Z,16.16
2018-04-30T05:32:35.253Z,16.08
2018-04-30T05:33:35.442Z,16.14
2018-04-30T05:34:35.581Z,15.98
2018-04-30T05:35:35.722Z,15.99
2018-04-30T05:36:35.914Z,15.99
2018-04-30T05:37:35.997Z,16.02
2018-04-30T05:38:36.128Z,16.03
2018-04-30T05:39:36.271Z,16.03
2018-04-30T05:40:36.434Z,15.99
2018-04-30T05:41:36.554Z,15.87
2018-04-30T05:42:36.690Z,15.87
2018-04-30T05:43:36.832Z,15.78
2018-04-30T05:44:36.988Z,15.63
2018-04-30T05:45:37.125Z,15.80
2018-04-30T05:46:37.267Z,15.78
2018-04-30T05:47:37.387Z,15.63
2018-04-30T05:48:37.524Z,15.50
2018-04-30T05:49:37.660Z,15.56
2018-04-30T05:50:37.795Z,15.48
2018-04-30T05:51:37.940Z,15.58
2018-04-30T05:52:38.078Z,15.56
2018-04-30T05:53:38.212Z,15.51
2018-04-30T05:54:38.347Z,15.59
2018-04-30T05:55:38.481Z,15.58
2018-04-30T05:56:38.626Z,15.52
2018-04-30T05:57:38.768Z,15.40
2018-04-30T05:58:38.903Z,15.44
2018-04-30T05:59:39.051Z,15.35
2018-04-30T06:00:39.236Z,15.38
2018-04-30T06:01:39.328Z,15.32
2018-04-30T06:02:39.468Z,15.44
2018-04-30T06:03:39.604Z,15.44
2018-04-30T06:04:39.743Z,15.47
2018-04-30T06:05:39.879Z,15.52
2018-04-30T06:06:40.020Z,15.44
2018-04-30T06:07:40.151Z,15.38
2018-04-30T06:08:40.290Z,15.56
2018-04-30T06:09:40.421Z,15.48
2018-04-30T06:10:40.561Z,15.40
2018-04-30T06:11:40.695Z,15.38
2018-04-30T06:12:40.835Z,15.38
2018-04-30T06:13:40.970Z,15.48
2018-04-30T06:14:41.119Z,15.33
2018-04-30T06:15:41.257Z,15.30
2018-04-30T06:16:41.403Z,15.48
2018-04-30T06:17:41.622Z,15.41
2018-04-30T06:18:41.652Z,15.48
2018-04-30T06:19:41.774Z,15.38
2018-04-30T06:20:41.911Z,15.36
2018-04-30T06:21:42.040Z,15.36
2018-04-30T06:22:42.176Z,15.41
2018-04-30T06:23:42.316Z,15.38
2018-04-30T06:24:42.455Z,15.36
2018-04-30T06:25:42.597Z,15.32
2018-04-30T06:26:42.884Z,15.41
2018-04-30T06:27:42.866Z,15.36
2018-04-30T06:28:42.999Z,15.43
2018-04-30T06:29:43.170Z,15.50
2018-04-30T06:30:43.300Z,15.40
2018-04-30T06:31:43.434Z,15.30
2018-04-30T06:32:43.579Z,15.30
2018-04-30T06:33:43.731Z,15.27
2018-04-30T06:34:43.881Z,15.43
2018-04-30T06:35:44.067Z,15.47
2018-04-30T06:36:44.169Z,15.44
2018-04-30T06:37:44.303Z,15.52
2018-04-30T06:38:44.436Z,15.59
2018-04-30T06:39:44.602Z,15.70
2018-04-30T06:40:44.732Z,15.72
2018-04-30T06:41:44.874Z,15.68
2018-04-30T06:42:45.012Z,15.62
2018-04-30T06:43:45.260Z,15.66
2018-04-30T06:44:45.307Z,15.60
2018-04-30T06:45:45.448Z,15.56
2018-04-30T06:46:45.594Z,15.58
2018-04-30T06:47:45.729Z,15.62
2018-04-30T06:48:45.869Z,15.62
2018-04-30T06:49:46.010Z,15.65
2018-04-30T06:50:46.166Z,15.73
2018-04-30T06:51:46.307Z,15.85
2018-04-30T06:52:46.448Z,15.95
2018-04-30T06:53:46.588Z,15.93
2018-04-30T06:54:46.720Z,15.87
2018-04-30T06:55:46.898Z,15.98
2018-04-30T06:56:46.995Z,15.98
2018-04-30T06:57:47.127Z,16.08
2018-04-30T06:58:47.344Z,16.14
2018-04-30T06:59:47.358Z,16.06
2018-04-30T07:00:47.529Z,16.06
2018-04-30T07:01:47.630Z,16.18
2018-04-30T07:02:47.769Z,16.06
2018-04-30T07:03:47.908Z,15.88
2018-04-30T07:04:48.047Z,15.78
2018-04-30T07:05:48.182Z,15.77
2018-04-30T07:06:48.321Z,15.77
2018-04-30T07:07:48.455Z,15.65
2018-04-30T07:08:48.590Z,15.66
2018-04-30T07:09:48.723Z,15.60
2018-04-30T07:10:48.863Z,15.50
2018-04-30T07:11:49.008Z,15.56
2018-04-30T07:12:49.143Z,15.50
2018-04-30T07:13:49.285Z,15.43
2018-04-30T07:14:49.421Z,15.40
2018-04-30T07:15:49.562Z,15.56
2018-04-30T07:16:49.702Z,15.38
2018-04-30T07:17:49.837Z,15.47
2018-04-30T07:18:49.975Z,15.35
2018-04-30T07:19:50.109Z,15.41
2018-04-30T07:20:50.255Z,15.29
2018-04-30T07:21:50.389Z,15.40
2018-04-30T07:22:50.520Z,15.26
2018-04-30T07:23:50.660Z,15.23
2018-04-30T07:24:50.803Z,15.26
2018-04-30T07:25:50.943Z,15.29
2018-04-30T07:26:51.094Z,15.23
2018-04-30T07:27:51.257Z,15.14
2018-04-30T07:28:51.391Z,15.19
2018-04-30T07:29:51.547Z,15.17
2018-04-30T07:30:51.665Z,15.03
2018-04-30T07:31:51.804Z,15.08
2018-04-30T07:32:51.948Z,15.10
2018-04-30T07:33:52.086Z,15.05
2018-04-30T07:34:52.224Z,15.03
2018-04-30T07:35:52.358Z,15.19
2018-04-30T07:36:52.499Z,15.12
2018-04-30T07:37:52.643Z,14.97
2018-04-30T07:38:52.817Z,14.99
2018-04-30T07:39:52.938Z,14.93
2018-04-30T07:40:53.082Z,15.04
2018-04-30T07:41:53.214Z,15.04
2018-04-30T07:42:53.987Z,14.95
2018-04-30T07:43:53.424Z,14.85
2018-04-30T07:44:53.556Z,14.89
2018-04-30T07:45:53.690Z,14.99
2018-04-30T07:46:53.852Z,14.97
2018-04-30T07:47:53.981Z,14.95
2018-04-30T07:48:54.125Z,14.85
2018-04-30T07:49:54.255Z,14.79
2018-04-30T07:50:54.410Z,14.77
2018-04-30T07:51:54.537Z,14.70
2018-04-30T07:52:54.673Z,14.82
2018-04-30T07:53:54.809Z,14.79
2018-04-30T07:54:54.981Z,14.74
2018-04-30T07:55:55.114Z,14.79
2018-04-30T07:56:55.259Z,14.73
2018-04-30T07:57:55.386Z,14.79
2018-04-30T07:58:55.512Z,14.74
2018-04-30T07:59:55.651Z,14.77
2018-04-30T08:00:55.786Z,14.70
2018-04-30T08:01:55.942Z,14.66
2018-04-30T08:02:56.096Z,14.64
2018-04-30T08:03:56.215Z,14.64
2018-04-30T08:04:56.376Z,14.69
2018-04-30T08:05:56.508Z,14.61
2018-04-30T08:06:56.651Z,14.63
2018-04-30T08:07:56.789Z,14.56
2018-04-30T08:08:56.919Z,14.64
2018-04-30T08:09:57.048Z,14.53
2018-04-30T08:10:57.193Z,14.63
2018-04-30T08:11:57.314Z,14.61
2018-04-30T08:12:57.475Z,14.59
2018-04-30T08:13:57.615Z,14.55
2018-04-30T08:14:57.806Z,14.53
2018-04-30T08:15:57.890Z,14.58
2018-04-30T08:16:58.027Z,14.63
2018-04-30T08:17:58.161Z,14.58
2018-04-30T08:18:58.297Z,14.61
2018-04-30T08:19:58.437Z,14.85
2018-04-30T08:20:58.576Z,14.70
2018-04-30T08:21:58.719Z,14.70
2018-04-30T08:22:58.857Z,14.83
2018-04-30T08:23:58.993Z,14.79
2018-04-30T08:24:59.130Z,14.87
2018-04-30T08:25:59.274Z,14.78
2018-04-30T08:26:59.418Z,14.74
2018-04-30T08:27:59.544Z,14.73
2018-04-30T08:28:59.687Z,14.82
2018-04-30T08:29:59.838Z,14.77
2018-04-30T08:30:59.974Z,14.74
2018-04-30T08:32:00.108Z,14.58
2018-04-30T08:33:00.247Z,14.59
2018-04-30T08:34:00.382Z,14.53
2018-04-30T08:35:00.523Z,14.51
2018-04-30T08:36:00.665Z,14.48
2018-04-30T08:37:00.806Z,14.52
2018-04-30T08:38:00.936Z,14.52
2018-04-30T08:39:01.084Z,14.37
2018-04-30T08:40:01.211Z,14.46
2018-04-30T08:41:01.381Z,14.52
2018-04-30T08:42:01.527Z,14.53
2018-04-30T08:43:01.686Z,14.53
2018-04-30T08:44:01.817Z,14.41
2018-04-30T08:45:01.958Z,14.41
2018-04-30T08:46:02.093Z,14.40
2018-04-30T08:47:02.270Z,14.41
2018-04-30T08:48:02.396Z,14.51
2018-04-30T08:49:02.537Z,14.45
2018-04-30T08:50:02.683Z,14.45
2018-04-30T08:51:02.846Z,14.46
2018-04-30T08:52:02.990Z,14.56
2018-04-30T08:53:03.108Z,14.46
2018-04-30T08:54:03.242Z,14.53
2018-04-30T08:55:03.394Z,14.38
2018-04-30T08:56:03.544Z,14.52
2018-04-30T08:57:03.673Z,14.46
2018-04-30T08:58:03.811Z,14.45
2018-04-30T08:59:04.871Z,14.56
2018-04-30T09:00:04.102Z,14.44
2018-04-30T09:01:04.240Z,14.41
2018-04-30T09:02:04.383Z,14.52
2018-04-30T09:03:04.516Z,14.64
2018-04-30T09:04:04.656Z,14.77
2018-04-30T09:05:04.844Z,14.66
2018-04-30T09:06:04.960Z,14.61
2018-04-30T09:07:05.100Z,14.64
2018-04-30T09:08:05.255Z,14.67
2018-04-30T09:09:05.432Z,14.73
2018-04-30T09:10:05.559Z,14.74
2018-04-30T09:11:06.316Z,14.70
2018-04-30T09:12:05.870Z,14.74
2018-04-30T09:13:06.011Z,14.74
2018-04-30T09:14:06.825Z,14.73
2018-04-30T09:15:06.271Z,14.58
2018-04-30T09:16:06.395Z,14.48
2018-04-30T09:17:06.550Z,14.56
2018-04-30T09:18:06.683Z,14.51
2018-04-30T09:19:06.827Z,14.59
2018-04-30T09:20:06.981Z,14.44
2018-04-30T09:21:07.140Z,14.55
2018-04-30T09:22:07.257Z,14.49
2018-04-30T09:23:07.398Z,14.38
2018-04-30T09:24:07.535Z,14.49
2018-04-30T09:25:07.674Z,14.41
2018-04-30T09:26:07.819Z,14.44
2018-04-30T09:27:07.951Z,14.45
2018-04-30T09:28:08.141Z,14.45
2018-04-30T09:29:08.306Z,14.37
2018-04-30T09:30:08.367Z,14.46
2018-04-30T09:31:08.512Z,14.46
2018-04-30T09:32:08.648Z,14.49
2018-04-30T09:33:08.788Z,14.44
2018-04-30T09:34:08.924Z,14.34
2018-04-30T09:35:09.066Z,14.41
2018-04-30T09:36:09.204Z,14.45
2018-04-30T09:37:09.353Z,14.40
2018-04-30T09:38:09.489Z,14.56
2018-04-30T09:39:09.625Z,14.55
2018-04-30T09:40:09.761Z,14.49
2018-04-30T09:41:09.901Z,14.51
2018-04-30T09:42:10.037Z,14.59
2018-04-30T09:43:10.174Z,14.66
2018-04-30T09:44:10.315Z,14.64
2018-04-30T09:45:10.449Z,14.67
2018-04-30T09:46:10.587Z,14.66
2018-04-30T09:47:10.750Z,14.87
2018-04-30T09:48:10.879Z,14.78
2018-04-30T09:49:11.103Z,14.89
2018-04-30T09:50:11.169Z,14.96
2018-04-30T09:51:11.306Z,15.07
2018-04-30T09:52:11.437Z,15.12
2018-04-30T09:53:11.580Z,15.15
2018-04-30T09:54:11.742Z,15.10
2018-04-30T09:55:11.870Z,15.10
2018-04-30T09:56:12.034Z,15.14
2018-04-30T09:57:12.180Z,15.20
2018-04-30T09:58:12.335Z,15.26
2018-04-30T09:59:12.469Z,15.36
2018-04-30T10:00:12.620Z,15.32
2018-04-30T10:01:12.749Z,15.40
2018-04-30T10:02:12.896Z,15.48
2018-04-30T10:03:13.032Z,15.44
2018-04-30T10:04:13.826Z,15.32
2018-04-30T10:05:16.270Z,15.29
2018-04-30T10:06:13.388Z,15.20
2018-04-30T10:07:13.564Z,15.20
2018-04-30T10:08:13.663Z,15.14
2018-04-30T10:09:13.857Z,15.11
2018-04-30T10:10:13.955Z,15.23
2018-04-30T10:11:14.108Z,15.44
2018-04-30T10:12:14.267Z,15.43
2018-04-30T10:13:14.405Z,15.51
2018-04-30T10:14:14.545Z,15.50
2018-04-30T10:15:14.688Z,15.60
2018-04-30T10:16:14.830Z,15.50
2018-04-30T10:17:14.969Z,15.65
2018-04-30T10:18:15.116Z,15.78
2018-04-30T10:19:15.253Z,15.87
2018-04-30T10:20:15.389Z,15.84
2018-04-30T10:21:15.532Z,15.90
2018-04-30T10:22:15.670Z,16.02
2018-04-30T10:23:15.810Z,16.05
2018-04-30T10:24:15.953Z,16.25
2018-04-30T10:25:16.093Z,16.29
2018-04-30T10:26:16.243Z,16.22
2018-04-30T10:27:16.389Z,16.26
2018-04-30T10:28:16.539Z,16.26
2018-04-30T10:29:16.672Z,16.32
2018-04-30T10:30:16.843Z,16.09
2018-04-30T10:31:16.951Z,16.03
2018-04-30T10:32:19.238Z,15.96
2018-04-30T10:33:17.255Z,15.99
2018-04-30T10:34:17.395Z,16.05
2018-04-30T10:35:17.536Z,15.99
2018-04-30T10:36:17.688Z,15.88
2018-04-30T10:37:17.811Z,15.95
2018-04-30T10:38:17.945Z,15.84
2018-04-30T10:39:18.188Z,15.78
2018-04-30T10:40:18.255Z,15.72
2018-04-30T10:41:18.386Z,15.76
2018-04-30T10:42:18.532Z,16.03
2018-04-30T10:43:18.679Z,16.24
2018-04-30T10:44:18.807Z,16.28
2018-04-30T10:45:18.954Z,16.40
2018-04-30T10:46:19.092Z,16.13
2018-04-30T10:47:19.254Z,16.13
2018-04-30T10:48:19.440Z,15.96
2018-04-30T10:49:19.449Z,15.91
2018-04-30T10:50:19.620Z,16.06
2018-04-30T10:51:19.739Z,16.17
2018-04-30T10:52:19.881Z,16.29
2018-04-30T10:53:20.027Z,16.36
2018-04-30T10:54:20.162Z,16.44
2018-04-30T10:55:20.307Z,16.34
2018-04-30T10:56:20.459Z,16.32
2018-04-30T10:57:20.608Z,16.10
2018-04-30T10:58:20.739Z,16.08
2018-04-30T10:59:20.868Z,15.96
2018-04-30T11:00:21.007Z,15.84
2018-04-30T11:01:21.147Z,15.99
2018-04-30T11:02:21.284Z,15.99
2018-04-30T11:03:21.420Z,16.00
2018-04-30T11:04:21.552Z,16.14
2018-04-30T11:05:21.693Z,16.00
2018-04-30T11:06:21.830Z,16.02
2018-04-30T11:07:21.972Z,16.03
2018-04-30T11:08:22.112Z,16.00
2018-04-30T11:09:22.255Z,16.24
2018-04-30T11:10:22.390Z,16.21
2018-04-30T11:11:22.528Z,16.29
2018-04-30T11:12:22.749Z,16.40
2018-04-30T11:13:22.815Z,16.64
2018-04-30T11:14:22.943Z,16.88
2018-04-30T11:15:23.081Z,17.04
2018-04-30T11:16:23.241Z,16.98
2018-04-30T11:17:23.387Z,16.88
2018-04-30T11:18:23.543Z,16.91
2018-04-30T11:19:23.684Z,16.94
2018-04-30T11:20:23.824Z,16.73
2018-04-30T11:21:23.990Z,16.62
2018-04-30T11:22:24.100Z,16.52
2018-04-30T11:23:24.265Z,16.46
2018-04-30T11:24:24.399Z,16.49
2018-04-30T11:25:24.547Z,16.43
2018-04-30T11:26:24.715Z,16.39
2018-04-30T11:27:24.841Z,16.44
2018-04-30T11:28:24.993Z,16.46
2018-04-30T11:29:25.117Z,16.52
2018-04-30T11:30:25.353Z,16.55
2018-04-30T11:31:25.423Z,16.59
2018-04-30T11:32:25.573Z,16.70
2018-04-30T11:33:25.713Z,16.79
2018-04-30T11:34:25.881Z,16.87
2018-04-30T11:35:25.985Z,17.14
2018-04-30T11:36:26.115Z,16.99
2018-04-30T11:37:26.263Z,16.91
2018-04-30T11:38:26.419Z,16.92
2018-04-30T11:39:26.546Z,16.91
2018-04-30T11:40:26.962Z,16.99
2018-04-30T11:41:26.837Z,16.99
2018-04-30T11:42:26.977Z,17.12
2018-04-30T11:43:27.111Z,17.16
2018-04-30T11:44:27.248Z,17.02
2018-04-30T11:45:27.425Z,16.99
2018-04-30T11:46:27.585Z,16.97
2018-04-30T11:47:27.696Z,16.77
2018-04-30T11:48:27.839Z,16.95
2018-04-30T11:49:27.981Z,16.95
2018-04-30T11:50:28.116Z,17.10
2018-04-30T11:51:28.255Z,17.13
2018-04-30T11:52:28.400Z,17.16
2018-04-30T11:53:28.555Z,17.02
2018-04-30T11:54:28.695Z,17.04
2018-04-30T11:55:28.891Z,16.92
2018-04-30T11:56:28.984Z,16.92
2018-04-30T11:57:29.121Z,16.87
2018-04-30T11:58:29.265Z,16.77
2018-04-30T11:59:29.407Z,16.83
2018-04-30T12:00:29.557Z,17.10
2018-04-30T12:01:29.684Z,17.07
2018-04-30T12:02:29.927Z,17.24
2018-04-30T12:03:29.972Z,17.13
2018-04-30T12:04:30.117Z,17.14
2018-04-30T12:05:30.252Z,17.13
2018-04-30T12:06:30.390Z,17.02
2018-04-30T12:07:30.535Z,17.10
2018-04-30T12:08:30.678Z,17.02
2018-04-30T12:09:30.822Z,17.10
2018-04-30T12:10:30.956Z,17.14
2018-04-30T12:11:31.087Z,17.19
2018-04-30T12:12:31.235Z,17.37
2018-04-30T12:13:31.374Z,17.27
2018-04-30T12:14:31.509Z,17.27
2018-04-30T12:15:31.662Z,17.24
2018-04-30T12:16:31.809Z,17.41
2018-04-30T12:17:31.942Z,17.56
2018-04-30T12:18:32.091Z,17.86
2018-04-30T12:19:32.244Z,17.93
2018-04-30T12:20:32.384Z,17.83
2018-04-30T12:21:32.521Z,17.57
2018-04-30T12:22:32.659Z,17.56
2018-04-30T12:23:32.827Z,17.68
2018-04-30T12:24:32.962Z,17.84
2018-04-30T12:25:33.096Z,17.99
2018-04-30T12:26:33.241Z,18.08
2018-04-30T12:27:33.392Z,18.27
2018-04-30T12:28:33.532Z,18.58
2018-04-30T12:29:33.666Z,18.76
2018-04-30T12:30:33.814Z,18.66
2018-04-30T12:31:33.953Z,18.64
2018-04-30T12:32:34.091Z,18.28
2018-04-30T12:33:34.270Z,18.01
2018-04-30T12:34:34.362Z,17.76
2018-04-30T12:35:34.533Z,17.79
2018-04-30T12:36:34.667Z,17.59
2018-04-30T12:37:34.809Z,17.54
2018-04-30T12:38:34.970Z,17.46
2018-04-30T12:39:35.122Z,17.71
2018-04-30T12:40:35.258Z,17.84
2018-04-30T12:41:35.399Z,17.57
2018-04-30T12:42:35.545Z,17.59
2018-04-30T12:43:35.762Z,17.54
2018-04-30T12:44:35.870Z,17.50
2018-04-30T12:45:36.018Z,17.38
2018-04-30T12:46:36.161Z,17.46
2018-04-30T12:47:36.302Z,17.50
2018-04-30T12:48:36.439Z,17.47
2018-04-30T12:49:36.642Z,17.47
2018-04-30T12:50:36.736Z,17.37
2018-04-30T12:51:36.873Z,17.39
2018-04-30T12:52:37.008Z,17.45
2018-04-30T12:53:37.147Z,17.49
2018-04-30T12:54:37.283Z,17.56
2018-04-30T12:55:37.440Z,17.47
2018-04-30T12:56:37.595Z,17.46
2018-04-30T12:57:37.738Z,17.45